sensor_id;sensor_type;location;lat;lon;timestamp;P1;durP1;ratioP1;P2;durP2;ratioP2
74059;SDS011;62414;53.436;8.828;2023-05-10T00:01:38;4.80;;;2.30;;
74059;SDS011;62414;53.436;8.828;2023-05-10T00:04:05;7.67;;;2.50;;
74059;SDS011;62414;53.436;8.828;2023-05-10T00:06:30;6.32;;;2.10;;
74059;SDS011;62414;53.436;8.828;2023-05-10T00:08:56;5.67;;;2.17;;
74059;SDS011;62414;53.436;8.828;2023-05-10T00:11:21;3.88;;;2.03;;
74059;SDS011;62414;53.436;8.828;2023-05-10T00:13:47;5.60;;;2.30;;
74059;SDS011;62414;53.436;8.828;2023-05-10T00:16:12;5.77;;;2.50;;
74059;SDS011;62414;53.436;8.828;2023-05-10T00:18:38;9.02;;;2.40;;
74059;SDS011;62414;53.436;8.828;2023-05-10T00:21:05;5.07;;;2.63;;
74059;SDS011;62414;53.436;8.828;2023-05-10T00:23:31;6.75;;;2.45;;
74059;SDS011;62414;53.436;8.828;2023-05-10T00:25:56;4.43;;;2.23;;
74059;SDS011;62414;53.436;8.828;2023-05-10T00:28:22;4.00;;;2.20;;
74059;SDS011;62414;53.436;8.828;2023-05-10T00:30:47;4.40;;;2.30;;
74059;SDS011;62414;53.436;8.828;2023-05-10T00:33:13;4.37;;;2.37;;
74059;SDS011;62414;53.436;8.828;2023-05-10T00:35:38;4.43;;;2.38;;
74059;SDS011;62414;53.436;8.828;2023-05-10T00:38:05;6.73;;;2.20;;
74059;SDS011;62414;53.436;8.828;2023-05-10T00:40:30;5.70;;;2.40;;
74059;SDS011;62414;53.436;8.828;2023-05-10T00:43:00;5.07;;;2.00;;
74059;SDS011;62414;53.436;8.828;2023-05-10T00:45:25;5.90;;;2.30;;
74059;SDS011;62414;53.436;8.828;2023-05-10T00:47:51;5.73;;;2.23;;
74059;SDS011;62414;53.436;8.828;2023-05-10T00:50:16;6.15;;;2.25;;
74059;SDS011;62414;53.436;8.828;2023-05-10T00:52:42;8.07;;;2.30;;
74059;SDS011;62414;53.436;8.828;2023-05-10T00:55:09;6.30;;;2.22;;
74059;SDS011;62414;53.436;8.828;2023-05-10T00:57:36;5.83;;;2.17;;
74059;SDS011;62414;53.436;8.828;2023-05-10T01:00:02;5.15;;;2.30;;
74059;SDS011;62414;53.436;8.828;2023-05-10T01:02:28;6.72;;;2.40;;
74059;SDS011;62414;53.436;8.828;2023-05-10T01:04:55;5.07;;;2.27;;
74059;SDS011;62414;53.436;8.828;2023-05-10T01:07:21;4.78;;;2.30;;
74059;SDS011;62414;53.436;8.828;2023-05-10T01:09:46;5.37;;;2.27;;
74059;SDS011;62414;53.436;8.828;2023-05-10T01:12:13;5.63;;;2.20;;
74059;SDS011;62414;53.436;8.828;2023-05-10T01:14:39;6.13;;;2.38;;
74059;SDS011;62414;53.436;8.828;2023-05-10T01:17:05;6.15;;;2.17;;
74059;SDS011;62414;53.436;8.828;2023-05-10T01:19:31;4.80;;;2.60;;
74059;SDS011;62414;53.436;8.828;2023-05-10T01:22:00;4.37;;;2.53;;
74059;SDS011;62414;53.436;8.828;2023-05-10T01:24:36;5.63;;;2.50;;
74059;SDS011;62414;53.436;8.828;2023-05-10T01:27:15;5.55;;;2.30;;
74059;SDS011;62414;53.436;8.828;2023-05-10T01:32:41;6.00;;;2.40;;
74059;SDS011;62414;53.436;8.828;2023-05-10T01:35:10;4.20;;;2.33;;
74059;SDS011;62414;53.436;8.828;2023-05-10T01:37:42;5.65;;;2.63;;
74059;SDS011;62414;53.436;8.828;2023-05-10T01:40:15;4.78;;;2.35;;
74059;SDS011;62414;53.436;8.828;2023-05-10T01:42:44;5.72;;;2.30;;
74059;SDS011;62414;53.436;8.828;2023-05-10T01:45:14;6.07;;;2.50;;
74059;SDS011;62414;53.436;8.828;2023-05-10T01:47:45;5.40;;;2.47;;
74059;SDS011;62414;53.436;8.828;2023-05-10T01:50:15;4.45;;;2.42;;
74059;SDS011;62414;53.436;8.828;2023-05-10T01:52:42;5.63;;;2.67;;
74059;SDS011;62414;53.436;8.828;2023-05-10T01:55:13;4.88;;;2.60;;
74059;SDS011;62414;53.436;8.828;2023-05-10T01:57:40;11.02;;;3.00;;
74059;SDS011;62414;53.436;8.828;2023-05-10T02:00:08;5.30;;;2.37;;
74059;SDS011;62414;53.436;8.828;2023-05-10T02:02:47;5.63;;;2.70;;
74059;SDS011;62414;53.436;8.828;2023-05-10T02:05:15;6.97;;;2.60;;
74059;SDS011;62414;53.436;8.828;2023-05-10T02:07:41;5.57;;;2.67;;
74059;SDS011;62414;53.436;8.828;2023-05-10T02:10:07;7.30;;;2.67;;
74059;SDS011;62414;53.436;8.828;2023-05-10T02:12:35;6.30;;;2.83;;
74059;SDS011;62414;53.436;8.828;2023-05-10T02:15:02;5.88;;;2.53;;
74059;SDS011;62414;53.436;8.828;2023-05-10T02:17:29;6.55;;;3.10;;
74059;SDS011;62414;53.436;8.828;2023-05-10T02:19:57;7.25;;;2.90;;
74059;SDS011;62414;53.436;8.828;2023-05-10T02:22:22;5.10;;;2.55;;
74059;SDS011;62414;53.436;8.828;2023-05-10T02:24:48;5.63;;;2.67;;
74059;SDS011;62414;53.436;8.828;2023-05-10T02:27:14;5.35;;;2.40;;
74059;SDS011;62414;53.436;8.828;2023-05-10T02:29:41;6.78;;;2.90;;
74059;SDS011;62414;53.436;8.828;2023-05-10T02:32:07;5.68;;;2.70;;
74059;SDS011;62414;53.436;8.828;2023-05-10T02:34:34;5.37;;;2.80;;
74059;SDS011;62414;53.436;8.828;2023-05-10T02:37:01;6.95;;;2.70;;
74059;SDS011;62414;53.436;8.828;2023-05-10T02:39:27;6.28;;;3.00;;
74059;SDS011;62414;53.436;8.828;2023-05-10T02:41:53;5.90;;;2.55;;
74059;SDS011;62414;53.436;8.828;2023-05-10T02:44:19;5.87;;;3.00;;
74059;SDS011;62414;53.436;8.828;2023-05-10T02:46:45;5.10;;;2.83;;
74059;SDS011;62414;53.436;8.828;2023-05-10T02:49:11;6.13;;;2.85;;
74059;SDS011;62414;53.436;8.828;2023-05-10T02:51:39;5.50;;;2.70;;
74059;SDS011;62414;53.436;8.828;2023-05-10T02:54:09;5.37;;;2.87;;
74059;SDS011;62414;53.436;8.828;2023-05-10T02:56:36;6.57;;;2.90;;
74059;SDS011;62414;53.436;8.828;2023-05-10T02:59:06;6.43;;;2.75;;
74059;SDS011;62414;53.436;8.828;2023-05-10T03:01:31;5.90;;;2.90;;
74059;SDS011;62414;53.436;8.828;2023-05-10T03:03:57;5.88;;;3.00;;
74059;SDS011;62414;53.436;8.828;2023-05-10T03:06:22;6.57;;;2.90;;
74059;SDS011;62414;53.436;8.828;2023-05-10T03:08:48;5.53;;;2.87;;
74059;SDS011;62414;53.436;8.828;2023-05-10T03:11:23;6.18;;;2.90;;
74059;SDS011;62414;53.436;8.828;2023-05-10T03:14:01;5.88;;;3.00;;
74059;SDS011;62414;53.436;8.828;2023-05-10T03:16:34;5.90;;;3.10;;
74059;SDS011;62414;53.436;8.828;2023-05-10T03:19:06;5.53;;;3.10;;
74059;SDS011;62414;53.436;8.828;2023-05-10T03:21:37;6.63;;;3.20;;
74059;SDS011;62414;53.436;8.828;2023-05-10T03:24:05;5.80;;;3.10;;
74059;SDS011;62414;53.436;8.828;2023-05-10T03:26:35;5.93;;;3.10;;
74059;SDS011;62414;53.436;8.828;2023-05-10T03:29:12;7.05;;;3.42;;
74059;SDS011;62414;53.436;8.828;2023-05-10T03:31:39;6.78;;;3.17;;
74059;SDS011;62414;53.436;8.828;2023-05-10T03:34:05;5.90;;;3.07;;
74059;SDS011;62414;53.436;8.828;2023-05-10T03:36:31;8.68;;;3.50;;
74059;SDS011;62414;53.436;8.828;2023-05-10T03:38:57;6.72;;;3.42;;
74059;SDS011;62414;53.436;8.828;2023-05-10T03:41:23;9.60;;;3.43;;
74059;SDS011;62414;53.436;8.828;2023-05-10T03:43:50;6.47;;;3.60;;
74059;SDS011;62414;53.436;8.828;2023-05-10T03:46:16;7.57;;;3.33;;
74059;SDS011;62414;53.436;8.828;2023-05-10T03:48:41;6.47;;;3.33;;
74059;SDS011;62414;53.436;8.828;2023-05-10T03:51:06;6.80;;;3.60;;
74059;SDS011;62414;53.436;8.828;2023-05-10T03:53:32;6.33;;;3.50;;
74059;SDS011;62414;53.436;8.828;2023-05-10T03:55:57;6.68;;;3.58;;
74059;SDS011;62414;53.436;8.828;2023-05-10T03:58:23;6.77;;;3.40;;
74059;SDS011;62414;53.436;8.828;2023-05-10T04:00:50;5.63;;;3.40;;
74059;SDS011;62414;53.436;8.828;2023-05-10T04:03:16;6.97;;;3.70;;
74059;SDS011;62414;53.436;8.828;2023-05-10T04:05:41;6.60;;;3.50;;
74059;SDS011;62414;53.436;8.828;2023-05-10T04:08:06;7.83;;;3.20;;
74059;SDS011;62414;53.436;8.828;2023-05-10T04:10:32;5.70;;;3.33;;
74059;SDS011;62414;53.436;8.828;2023-05-10T04:12:57;6.77;;;3.30;;
74059;SDS011;62414;53.436;8.828;2023-05-10T04:15:23;6.73;;;3.57;;
74059;SDS011;62414;53.436;8.828;2023-05-10T04:17:50;8.63;;;3.50;;
74059;SDS011;62414;53.436;8.828;2023-05-10T04:20:15;7.28;;;3.53;;
74059;SDS011;62414;53.436;8.828;2023-05-10T04:22:41;6.85;;;3.70;;
74059;SDS011;62414;53.436;8.828;2023-05-10T04:25:07;6.77;;;3.70;;
74059;SDS011;62414;53.436;8.828;2023-05-10T04:27:33;7.28;;;3.60;;
74059;SDS011;62414;53.436;8.828;2023-05-10T04:29:58;7.13;;;3.90;;
74059;SDS011;62414;53.436;8.828;2023-05-10T04:32:24;7.37;;;3.73;;
74059;SDS011;62414;53.436;8.828;2023-05-10T04:34:50;6.50;;;4.05;;
74059;SDS011;62414;53.436;8.828;2023-05-10T04:37:16;7.20;;;4.20;;
74059;SDS011;62414;53.436;8.828;2023-05-10T04:39:41;8.52;;;4.25;;
74059;SDS011;62414;53.436;8.828;2023-05-10T04:42:07;7.53;;;4.00;;
74059;SDS011;62414;53.436;8.828;2023-05-10T04:44:32;6.23;;;3.90;;
74059;SDS011;62414;53.436;8.828;2023-05-10T04:46:58;6.90;;;4.30;;
74059;SDS011;62414;53.436;8.828;2023-05-10T04:49:23;8.40;;;4.10;;
74059;SDS011;62414;53.436;8.828;2023-05-10T04:51:50;7.77;;;3.97;;
74059;SDS011;62414;53.436;8.828;2023-05-10T04:54:15;8.63;;;4.40;;
74059;SDS011;62414;53.436;8.828;2023-05-10T04:56:41;8.23;;;3.97;;
74059;SDS011;62414;53.436;8.828;2023-05-10T04:59:06;7.13;;;3.80;;
74059;SDS011;62414;53.436;8.828;2023-05-10T05:01:32;7.50;;;4.20;;
74059;SDS011;62414;53.436;8.828;2023-05-10T05:03:58;7.75;;;4.30;;
74059;SDS011;62414;53.436;8.828;2023-05-10T05:06:23;6.40;;;3.90;;
74059;SDS011;62414;53.436;8.828;2023-05-10T05:08:50;7.50;;;4.15;;
74059;SDS011;62414;53.436;8.828;2023-05-10T05:11:15;8.67;;;4.10;;
74059;SDS011;62414;53.436;8.828;2023-05-10T05:13:41;6.90;;;4.20;;
74059;SDS011;62414;53.436;8.828;2023-05-10T05:16:06;7.83;;;4.13;;
74059;SDS011;62414;53.436;8.828;2023-05-10T05:18:32;8.73;;;4.50;;
74059;SDS011;62414;53.436;8.828;2023-05-10T05:20:57;7.72;;;4.30;;
74059;SDS011;62414;53.436;8.828;2023-05-10T05:23:23;7.67;;;4.23;;
74059;SDS011;62414;53.436;8.828;2023-05-10T05:25:50;9.67;;;4.40;;
74059;SDS011;62414;53.436;8.828;2023-05-10T05:28:16;10.00;;;4.53;;
74059;SDS011;62414;53.436;8.828;2023-05-10T05:30:41;9.17;;;4.67;;
74059;SDS011;62414;53.436;8.828;2023-05-10T05:33:07;8.77;;;4.70;;
74059;SDS011;62414;53.436;8.828;2023-05-10T05:35:32;8.37;;;4.80;;
74059;SDS011;62414;53.436;8.828;2023-05-10T05:37:58;11.50;;;4.90;;
74059;SDS011;62414;53.436;8.828;2023-05-10T05:40:23;8.98;;;4.90;;
74059;SDS011;62414;53.436;8.828;2023-05-10T05:42:50;8.87;;;4.80;;
74059;SDS011;62414;53.436;8.828;2023-05-10T05:45:16;8.80;;;5.22;;
74059;SDS011;62414;53.436;8.828;2023-05-10T05:47:41;9.40;;;5.13;;
74059;SDS011;62414;53.436;8.828;2023-05-10T05:50:07;8.35;;;5.32;;
74059;SDS011;62414;53.436;8.828;2023-05-10T05:52:33;10.23;;;5.50;;
74059;SDS011;62414;53.436;8.828;2023-05-10T05:54:58;11.05;;;5.15;;
74059;SDS011;62414;53.436;8.828;2023-05-10T05:57:24;9.73;;;5.13;;
74059;SDS011;62414;53.436;8.828;2023-05-10T05:59:51;10.07;;;6.00;;
74059;SDS011;62414;53.436;8.828;2023-05-10T06:02:16;11.43;;;5.93;;
74059;SDS011;62414;53.436;8.828;2023-05-10T06:04:41;11.52;;;5.95;;
74059;SDS011;62414;53.436;8.828;2023-05-10T06:07:07;11.30;;;6.27;;
74059;SDS011;62414;53.436;8.828;2023-05-10T06:09:32;13.43;;;6.80;;
74059;SDS011;62414;53.436;8.828;2023-05-10T06:11:58;12.50;;;6.67;;
74059;SDS011;62414;53.436;8.828;2023-05-10T06:14:23;10.10;;;6.30;;
74059;SDS011;62414;53.436;8.828;2023-05-10T06:16:50;10.97;;;6.57;;
74059;SDS011;62414;53.436;8.828;2023-05-10T06:19:15;13.80;;;6.63;;
74059;SDS011;62414;53.436;8.828;2023-05-10T06:21:41;12.53;;;6.87;;
74059;SDS011;62414;53.436;8.828;2023-05-10T06:24:06;11.17;;;6.53;;
74059;SDS011;62414;53.436;8.828;2023-05-10T06:26:32;12.68;;;6.90;;
74059;SDS011;62414;53.436;8.828;2023-05-10T06:28:58;11.68;;;6.97;;
74059;SDS011;62414;53.436;8.828;2023-05-10T06:31:23;10.83;;;6.60;;
74059;SDS011;62414;53.436;8.828;2023-05-10T06:33:50;12.53;;;6.97;;
74059;SDS011;62414;53.436;8.828;2023-05-10T06:36:16;12.77;;;7.35;;
74059;SDS011;62414;53.436;8.828;2023-05-10T06:38:41;13.00;;;7.07;;
74059;SDS011;62414;53.436;8.828;2023-05-10T06:41:07;13.50;;;7.30;;
74059;SDS011;62414;53.436;8.828;2023-05-10T06:43:32;12.63;;;7.30;;
74059;SDS011;62414;53.436;8.828;2023-05-10T06:45:57;13.37;;;7.10;;
74059;SDS011;62414;53.436;8.828;2023-05-10T06:48:23;13.80;;;7.40;;
74059;SDS011;62414;53.436;8.828;2023-05-10T06:50:50;13.65;;;7.85;;
74059;SDS011;62414;53.436;8.828;2023-05-10T06:53:15;12.73;;;7.47;;
74059;SDS011;62414;53.436;8.828;2023-05-10T06:55:40;13.35;;;7.70;;
74059;SDS011;62414;53.436;8.828;2023-05-10T06:58:06;17.30;;;8.13;;
74059;SDS011;62414;53.436;8.828;2023-05-10T07:00:31;13.83;;;8.10;;
74059;SDS011;62414;53.436;8.828;2023-05-10T07:02:57;14.60;;;8.18;;
74059;SDS011;62414;53.436;8.828;2023-05-10T07:05:22;15.10;;;8.40;;
74059;SDS011;62414;53.436;8.828;2023-05-10T07:07:49;14.43;;;8.57;;
74059;SDS011;62414;53.436;8.828;2023-05-10T07:10:15;17.00;;;8.80;;
74059;SDS011;62414;53.436;8.828;2023-05-10T07:12:40;12.57;;;7.60;;
74059;SDS011;62414;53.436;8.828;2023-05-10T07:15:06;13.63;;;8.25;;
74059;SDS011;62414;53.436;8.828;2023-05-10T07:17:33;14.20;;;8.27;;
74059;SDS011;62414;53.436;8.828;2023-05-10T07:19:58;15.07;;;8.15;;
74059;SDS011;62414;53.436;8.828;2023-05-10T07:22:24;15.53;;;8.77;;
74059;SDS011;62414;53.436;8.828;2023-05-10T07:24:51;15.10;;;8.67;;
74059;SDS011;62414;53.436;8.828;2023-05-10T07:27:16;15.77;;;8.63;;
74059;SDS011;62414;53.436;8.828;2023-05-10T07:29:42;14.23;;;8.10;;
74059;SDS011;62414;53.436;8.828;2023-05-10T07:32:07;15.63;;;8.73;;
74059;SDS011;62414;53.436;8.828;2023-05-10T07:34:32;15.40;;;8.83;;
74059;SDS011;62414;53.436;8.828;2023-05-10T07:36:58;15.33;;;8.87;;
74059;SDS011;62414;53.436;8.828;2023-05-10T07:39:24;16.17;;;9.07;;
74059;SDS011;62414;53.436;8.828;2023-05-10T07:41:50;17.77;;;9.70;;
74059;SDS011;62414;53.436;8.828;2023-05-10T07:44:16;16.83;;;9.50;;
74059;SDS011;62414;53.436;8.828;2023-05-10T07:46:41;19.40;;;9.67;;
74059;SDS011;62414;53.436;8.828;2023-05-10T07:49:07;17.45;;;9.30;;
74059;SDS011;62414;53.436;8.828;2023-05-10T07:51:32;18.00;;;9.60;;
74059;SDS011;62414;53.436;8.828;2023-05-10T07:53:58;18.33;;;9.63;;
74059;SDS011;62414;53.436;8.828;2023-05-10T07:56:24;17.70;;;9.37;;
74059;SDS011;62414;53.436;8.828;2023-05-10T07:58:51;18.23;;;9.93;;
74059;SDS011;62414;53.436;8.828;2023-05-10T08:01:17;17.50;;;9.77;;
74059;SDS011;62414;53.436;8.828;2023-05-10T08:03:43;19.00;;;10.27;;
74059;SDS011;62414;53.436;8.828;2023-05-10T08:06:08;21.00;;;10.43;;
74059;SDS011;62414;53.436;8.828;2023-05-10T08:08:33;20.00;;;10.33;;
74059;SDS011;62414;53.436;8.828;2023-05-10T08:10:59;19.23;;;10.30;;
74059;SDS011;62414;53.436;8.828;2023-05-10T08:13:24;18.13;;;10.70;;
74059;SDS011;62414;53.436;8.828;2023-05-10T08:15:51;21.10;;;10.37;;
74059;SDS011;62414;53.436;8.828;2023-05-10T08:18:16;17.67;;;10.15;;
74059;SDS011;62414;53.436;8.828;2023-05-10T08:20:42;17.77;;;10.07;;
74059;SDS011;62414;53.436;8.828;2023-05-10T08:23:07;17.30;;;9.70;;
74059;SDS011;62414;53.436;8.828;2023-05-10T08:25:33;18.15;;;9.93;;
74059;SDS011;62414;53.436;8.828;2023-05-10T08:27:58;19.20;;;9.93;;
74059;SDS011;62414;53.436;8.828;2023-05-10T08:30:23;18.37;;;10.37;;
74059;SDS011;62414;53.436;8.828;2023-05-10T08:32:50;17.60;;;9.68;;
74059;SDS011;62414;53.436;8.828;2023-05-10T08:35:16;17.40;;;9.73;;
74059;SDS011;62414;53.436;8.828;2023-05-10T08:37:41;16.23;;;9.60;;
74059;SDS011;62414;53.436;8.828;2023-05-10T08:40:07;18.03;;;9.73;;
74059;SDS011;62414;53.436;8.828;2023-05-10T08:42:34;14.73;;;9.00;;
74059;SDS011;62414;53.436;8.828;2023-05-10T08:45:01;16.77;;;9.60;;
74059;SDS011;62414;53.436;8.828;2023-05-10T08:47:27;18.15;;;10.60;;
74059;SDS011;62414;53.436;8.828;2023-05-10T08:49:55;16.35;;;9.30;;
74059;SDS011;62414;53.436;8.828;2023-05-10T08:52:21;15.63;;;9.27;;
74059;SDS011;62414;53.436;8.828;2023-05-10T08:54:48;17.20;;;9.80;;
74059;SDS011;62414;53.436;8.828;2023-05-10T08:57:14;17.57;;;9.60;;
74059;SDS011;62414;53.436;8.828;2023-05-10T08:59:40;15.13;;;8.97;;
74059;SDS011;62414;53.436;8.828;2023-05-10T09:02:05;14.10;;;8.80;;
74059;SDS011;62414;53.436;8.828;2023-05-10T09:04:31;13.83;;;8.37;;
74059;SDS011;62414;53.436;8.828;2023-05-10T09:06:58;13.60;;;8.30;;
74059;SDS011;62414;53.436;8.828;2023-05-10T09:09:23;13.10;;;7.60;;
74059;SDS011;62414;53.436;8.828;2023-05-10T09:11:49;12.40;;;7.63;;
74059;SDS011;62414;53.436;8.828;2023-05-10T09:14:14;13.83;;;7.77;;
74059;SDS011;62414;53.436;8.828;2023-05-10T09:16:40;13.18;;;7.63;;
74059;SDS011;62414;53.436;8.828;2023-05-10T09:19:05;12.47;;;7.63;;
74059;SDS011;62414;53.436;8.828;2023-05-10T09:21:31;12.97;;;7.20;;
74059;SDS011;62414;53.436;8.828;2023-05-10T09:23:58;11.80;;;6.83;;
74059;SDS011;62414;53.436;8.828;2023-05-10T09:26:28;13.05;;;7.13;;
74059;SDS011;62414;53.436;8.828;2023-05-10T09:28:54;12.17;;;6.93;;
74059;SDS011;62414;53.436;8.828;2023-05-10T09:31:20;10.88;;;5.68;;
74059;SDS011;62414;53.436;8.828;2023-05-10T09:33:45;10.83;;;5.60;;
74059;SDS011;62414;53.436;8.828;2023-05-10T09:36:11;12.50;;;5.60;;
74059;SDS011;62414;53.436;8.828;2023-05-10T09:38:44;9.33;;;4.90;;
74059;SDS011;62414;53.436;8.828;2023-05-10T09:41:16;9.30;;;5.10;;
74059;SDS011;62414;53.436;8.828;2023-05-10T09:43:42;11.02;;;5.22;;
74059;SDS011;62414;53.436;8.828;2023-05-10T09:46:08;10.07;;;5.10;;
74059;SDS011;62414;53.436;8.828;2023-05-10T09:48:34;11.50;;;5.63;;
74059;SDS011;62414;53.436;8.828;2023-05-10T09:50:59;9.53;;;5.07;;
74059;SDS011;62414;53.436;8.828;2023-05-10T09:53:25;9.53;;;4.60;;
74059;SDS011;62414;53.436;8.828;2023-05-10T09:55:50;8.43;;;4.28;;
74059;SDS011;62414;53.436;8.828;2023-05-10T09:58:17;8.20;;;4.57;;
74059;SDS011;62414;53.436;8.828;2023-05-10T10:00:43;9.65;;;4.75;;
74059;SDS011;62414;53.436;8.828;2023-05-10T10:03:11;10.60;;;5.25;;
74059;SDS011;62414;53.436;8.828;2023-05-10T10:05:39;9.73;;;5.20;;
74059;SDS011;62414;53.436;8.828;2023-05-10T10:08:06;8.10;;;4.32;;
74059;SDS011;62414;53.436;8.828;2023-05-10T10:10:32;10.13;;;4.82;;
74059;SDS011;62414;53.436;8.828;2023-05-10T10:12:58;8.65;;;4.63;;
74059;SDS011;62414;53.436;8.828;2023-05-10T10:15:25;8.50;;;4.70;;
74059;SDS011;62414;53.436;8.828;2023-05-10T10:17:51;8.55;;;4.40;;
74059;SDS011;62414;53.436;8.828;2023-05-10T10:20:17;7.78;;;4.20;;
74059;SDS011;62414;53.436;8.828;2023-05-10T10:22:43;8.60;;;4.50;;
74059;SDS011;62414;53.436;8.828;2023-05-10T10:25:10;9.63;;;4.50;;
74059;SDS011;62414;53.436;8.828;2023-05-10T10:27:38;6.63;;;3.20;;
74059;SDS011;62414;53.436;8.828;2023-05-10T10:30:12;7.07;;;3.22;;
74059;SDS011;62414;53.436;8.828;2023-05-10T10:32:47;5.83;;;3.10;;
74059;SDS011;62414;53.436;8.828;2023-05-10T10:35:22;6.65;;;3.15;;
74059;SDS011;62414;53.436;8.828;2023-05-10T10:37:48;6.57;;;3.25;;
74059;SDS011;62414;53.436;8.828;2023-05-10T10:40:25;6.53;;;2.80;;
74059;SDS011;62414;53.436;8.828;2023-05-10T10:42:51;4.13;;;2.00;;
74059;SDS011;62414;53.436;8.828;2023-05-10T10:45:17;4.13;;;1.92;;
74059;SDS011;62414;53.436;8.828;2023-05-10T10:47:43;4.00;;;1.73;;
74059;SDS011;62414;53.436;8.828;2023-05-10T10:50:09;4.68;;;2.05;;
74059;SDS011;62414;53.436;8.828;2023-05-10T10:52:35;5.33;;;2.40;;
74059;SDS011;62414;53.436;8.828;2023-05-10T10:55:02;4.32;;;2.10;;
74059;SDS011;62414;53.436;8.828;2023-05-10T10:57:31;4.82;;;2.80;;
74059;SDS011;62414;53.436;8.828;2023-05-10T11:02:50;5.32;;;2.50;;
74059;SDS011;62414;53.436;8.828;2023-05-10T11:05:23;5.82;;;2.90;;
74059;SDS011;62414;53.436;8.828;2023-05-10T11:08:07;5.30;;;2.63;;
74059;SDS011;62414;53.436;8.828;2023-05-10T11:10:37;6.10;;;2.50;;
74059;SDS011;62414;53.436;8.828;2023-05-10T11:13:04;5.87;;;2.53;;
74059;SDS011;62414;53.436;8.828;2023-05-10T11:15:31;4.32;;;2.00;;
74059;SDS011;62414;53.436;8.828;2023-05-10T11:17:58;4.90;;;2.53;;
74059;SDS011;62414;53.436;8.828;2023-05-10T11:20:26;4.18;;;2.00;;
74059;SDS011;62414;53.436;8.828;2023-05-10T11:22:53;4.50;;;2.10;;
74059;SDS011;62414;53.436;8.828;2023-05-10T11:25:18;4.17;;;2.00;;
74059;SDS011;62414;53.436;8.828;2023-05-10T11:27:44;4.57;;;2.08;;
74059;SDS011;62414;53.436;8.828;2023-05-10T11:30:10;4.10;;;2.23;;
74059;SDS011;62414;53.436;8.828;2023-05-10T11:32:36;4.70;;;1.95;;
74059;SDS011;62414;53.436;8.828;2023-05-10T11:35:07;4.25;;;2.05;;
74059;SDS011;62414;53.436;8.828;2023-05-10T11:37:33;4.00;;;2.03;;
74059;SDS011;62414;53.436;8.828;2023-05-10T11:39:58;4.10;;;1.77;;
74059;SDS011;62414;53.436;8.828;2023-05-10T11:42:24;4.43;;;1.93;;
74059;SDS011;62414;53.436;8.828;2023-05-10T11:44:49;3.77;;;2.00;;
74059;SDS011;62414;53.436;8.828;2023-05-10T11:47:15;5.05;;;2.10;;
74059;SDS011;62414;53.436;8.828;2023-05-10T11:49:43;4.00;;;2.00;;
74059;SDS011;62414;53.436;8.828;2023-05-10T11:52:10;4.47;;;2.17;;
74059;SDS011;62414;53.436;8.828;2023-05-10T11:54:35;4.10;;;2.40;;
74059;SDS011;62414;53.436;8.828;2023-05-10T11:57:01;4.20;;;2.40;;
74059;SDS011;62414;53.436;8.828;2023-05-10T11:59:26;4.40;;;2.23;;
74059;SDS011;62414;53.436;8.828;2023-05-10T12:01:51;4.37;;;2.30;;
74059;SDS011;62414;53.436;8.828;2023-05-10T12:04:17;3.67;;;1.75;;
74059;SDS011;62414;53.436;8.828;2023-05-10T12:06:42;3.00;;;0.90;;
74059;SDS011;62414;53.436;8.828;2023-05-10T12:09:09;2.25;;;0.63;;
74059;SDS011;62414;53.436;8.828;2023-05-10T12:11:36;2.07;;;0.60;;
74059;SDS011;62414;53.436;8.828;2023-05-10T12:14:03;2.20;;;0.70;;
74059;SDS011;62414;53.436;8.828;2023-05-10T12:16:29;2.20;;;0.73;;
74059;SDS011;62414;53.436;8.828;2023-05-10T12:18:55;2.77;;;0.70;;
74059;SDS011;62414;53.436;8.828;2023-05-10T12:21:21;2.28;;;0.70;;
74059;SDS011;62414;53.436;8.828;2023-05-10T12:23:48;2.90;;;1.00;;
74059;SDS011;62414;53.436;8.828;2023-05-10T12:26:16;2.83;;;0.93;;
74059;SDS011;62414;53.436;8.828;2023-05-10T12:28:42;2.90;;;1.25;;
74059;SDS011;62414;53.436;8.828;2023-05-10T12:31:07;3.00;;;1.40;;
74059;SDS011;62414;53.436;8.828;2023-05-10T12:33:36;3.22;;;1.40;;
74059;SDS011;62414;53.436;8.828;2023-05-10T12:36:02;3.10;;;1.60;;
74059;SDS011;62414;53.436;8.828;2023-05-10T12:38:28;3.10;;;1.50;;
74059;SDS011;62414;53.436;8.828;2023-05-10T12:40:54;3.83;;;1.88;;
74059;SDS011;62414;53.436;8.828;2023-05-10T12:43:21;3.23;;;1.60;;
74059;SDS011;62414;53.436;8.828;2023-05-10T12:45:47;3.30;;;1.58;;
74059;SDS011;62414;53.436;8.828;2023-05-10T12:48:12;3.10;;;1.50;;
74059;SDS011;62414;53.436;8.828;2023-05-10T12:50:38;3.17;;;1.23;;
74059;SDS011;62414;53.436;8.828;2023-05-10T12:53:03;2.93;;;1.30;;
74059;SDS011;62414;53.436;8.828;2023-05-10T12:55:28;3.00;;;1.40;;
74059;SDS011;62414;53.436;8.828;2023-05-10T12:57:54;3.67;;;1.40;;
74059;SDS011;62414;53.436;8.828;2023-05-10T13:00:21;3.17;;;1.40;;
74059;SDS011;62414;53.436;8.828;2023-05-10T13:02:46;4.05;;;1.10;;
74059;SDS011;62414;53.436;8.828;2023-05-10T13:05:12;2.53;;;1.17;;
74059;SDS011;62414;53.436;8.828;2023-05-10T13:07:37;3.43;;;1.10;;
74059;SDS011;62414;53.436;8.828;2023-05-10T13:10:03;3.90;;;1.30;;
74059;SDS011;62414;53.436;8.828;2023-05-10T13:12:29;2.83;;;1.50;;
74059;SDS011;62414;53.436;8.828;2023-05-10T13:14:54;2.90;;;1.50;;
74059;SDS011;62414;53.436;8.828;2023-05-10T13:17:21;3.50;;;1.73;;
74059;SDS011;62414;53.436;8.828;2023-05-10T13:19:46;2.97;;;1.40;;
74059;SDS011;62414;53.436;8.828;2023-05-10T13:22:12;4.20;;;2.10;;
74059;SDS011;62414;53.436;8.828;2023-05-10T13:24:37;4.43;;;2.17;;
74059;SDS011;62414;53.436;8.828;2023-05-10T13:27:03;3.90;;;2.00;;
74059;SDS011;62414;53.436;8.828;2023-05-10T13:29:28;4.28;;;2.00;;
74059;SDS011;62414;53.436;8.828;2023-05-10T13:31:54;5.20;;;2.50;;
74059;SDS011;62414;53.436;8.828;2023-05-10T13:34:20;4.60;;;2.70;;
74059;SDS011;62414;53.436;8.828;2023-05-10T13:36:46;4.57;;;2.70;;
74059;SDS011;62414;53.436;8.828;2023-05-10T13:39:12;5.05;;;2.80;;
74059;SDS011;62414;53.436;8.828;2023-05-10T13:41:37;4.37;;;2.40;;
74059;SDS011;62414;53.436;8.828;2023-05-10T13:44:03;6.13;;;2.40;;
74059;SDS011;62414;53.436;8.828;2023-05-10T13:46:28;3.95;;;1.95;;
74059;SDS011;62414;53.436;8.828;2023-05-10T13:48:54;4.47;;;2.50;;
74059;SDS011;62414;53.436;8.828;2023-05-10T13:51:21;4.50;;;2.23;;
74059;SDS011;62414;53.436;8.828;2023-05-10T13:53:46;5.43;;;2.67;;
74059;SDS011;62414;53.436;8.828;2023-05-10T13:56:12;7.10;;;3.90;;
74059;SDS011;62414;53.436;8.828;2023-05-10T14:49:02;4.82;;;2.67;;
74059;SDS011;62414;53.436;8.828;2023-05-10T14:51:28;4.20;;;2.50;;
74059;SDS011;62414;53.436;8.828;2023-05-10T14:53:53;4.63;;;2.30;;
74059;SDS011;62414;53.436;8.828;2023-05-10T14:56:18;4.07;;;2.20;;
74059;SDS011;62414;53.436;8.828;2023-05-10T14:58:44;4.20;;;2.20;;
74059;SDS011;62414;53.436;8.828;2023-05-10T15:01:09;3.50;;;1.83;;
74059;SDS011;62414;53.436;8.828;2023-05-10T15:03:35;3.58;;;1.83;;
74059;SDS011;62414;53.436;8.828;2023-05-10T15:06:01;3.13;;;1.63;;
74059;SDS011;62414;53.436;8.828;2023-05-10T15:08:27;3.10;;;1.65;;
74059;SDS011;62414;53.436;8.828;2023-05-10T15:10:52;4.07;;;1.90;;
74059;SDS011;62414;53.436;8.828;2023-05-10T15:13:18;3.93;;;2.33;;
74059;SDS011;62414;53.436;8.828;2023-05-10T15:15:43;4.20;;;2.63;;
74059;SDS011;62414;53.436;8.828;2023-05-10T15:18:09;5.07;;;2.90;;
74059;SDS011;62414;53.436;8.828;2023-05-10T15:20:34;6.23;;;3.33;;
74059;SDS011;62414;53.436;8.828;2023-05-10T15:23:01;4.97;;;2.97;;
74059;SDS011;62414;53.436;8.828;2023-05-10T15:25:26;4.20;;;2.55;;
74059;SDS011;62414;53.436;8.828;2023-05-10T15:27:52;5.03;;;2.75;;
74059;SDS011;62414;53.436;8.828;2023-05-10T15:30:17;4.87;;;2.90;;
74059;SDS011;62414;53.436;8.828;2023-05-10T15:32:43;5.07;;;2.90;;
74059;SDS011;62414;53.436;8.828;2023-05-10T15:35:08;5.10;;;2.90;;